الصفحة الرئيسية
METAR-TAF:

METAR-TAF

مطار :

مطار تيد ستيفنز أنكوراج الدولي

أنكوراج, ألاسكا, الولايات المتحدة

دائرة عرض: 61-10-28N, خط طول: 149-59-46W, ارتفاع: 44 متر

مراقبة الطقس الحالي

تاريخ ووقت الإصدار 1ساعة و 4 دقيقة قبل الساعة 16:53UTC
ريح 7 عقدة من الشمال
درجة الحرارة -8°درجة مئوية
الرطوبة 52%
ضغط 1016 hPa
الرؤية: 16.1 كم
ملبد بالغيوم على ارتفاع 7500 قدم

METAR: PANC 041653Z 36007KT 10SM OVC075 M08/M16 A2999 RMK AO2 SLP157 T10831156 $

زمن: 08:57 (17:57 UTC)

توقعات

تاريخ ووقت الإصدار 27 دقيقة قبل الساعة 17:30UTC
التوقعات صالحة من04 الساعة 18 UTC إلى 05 الساعة 24 UTC
ريح 6 عقدة من الشمال
الرؤية: 10 كم
غيوم متفرقة على ارتفاع 5000 قدم
ملبد بالغيوم على ارتفاع 7000 قدم
من 05 الساعة 0100 UTC
ريح 5 عقدة من الشمال
الرؤية: 9.7 كم
غيوم مفككة على ارتفاع 3000 قدم
ثلوج خفيفة
من 05 الساعة 0700 UTC
ريح 4 عقدة من الشمال
الرؤية: 10 كم
غيوم متفرقة على ارتفاع 4500 قدم
غيوم مفككة على ارتفاع 6000 قدم

TAF: PANC 041730Z 0418/0524 36006KT P6SM SCT050 OVC070 FM050100 01005KT 6SM -SN BKN030 FM050700 36004KT P6SM SCT045 BKN060

أرصاد الطقس والتوقعات من أكثر من 4000 مطار (تقارير الطقس للمطار METAR والتنبؤ بالطقس بالمطارTAF).

المحطات المتاحة هي النقط الصفراء والحمراء على الخريطة.

حرك المؤشر فوق النقطة لمعرفة اسم المحطة.

ثم انقر لمعرفة أرصاد وتوقعات الطقس.

لتغيير الخارطة: اضغط على الأزرار الخضراء مع رمز الصليب الأسود للتكبير. على الزر الأخضر مع شرطة للتصغير، أو على الأسهم الخضراء للخرائط المجاورة.


METAR-TAF: